createdAt,value
2022-09-24T00:00:50.342Z,37.53
2022-09-24T00:03:19.913Z,33.55
2022-09-24T00:05:46.635Z,31.30
2022-09-24T00:08:13.526Z,34.40
2022-09-24T00:10:40.792Z,31.83
2022-09-24T00:13:07.903Z,33.08
2022-09-24T00:15:37.748Z,29.67
2022-09-24T00:18:05.659Z,28.50
2022-09-24T00:20:32.982Z,28.92
2022-09-24T00:22:59.805Z,28.55
2022-09-24T00:25:44.440Z,28.35
2022-09-24T00:28:12.001Z,28.88
2022-09-24T00:30:39.043Z,27.23
2022-09-24T00:33:05.466Z,32.70
2022-09-24T00:35:33.551Z,28.63
2022-09-24T00:37:59.813Z,27.08
2022-09-24T00:40:29.875Z,26.00
2022-09-24T00:42:56.153Z,26.35
2022-09-24T00:45:23.217Z,28.05
2022-09-24T00:47:50.553Z,29.15
2022-09-24T00:50:25.224Z,25.33
2022-09-24T00:52:58.982Z,23.85
2022-09-24T00:55:26.595Z,27.30
2022-09-24T00:57:56.113Z,28.00
2022-09-24T01:00:22.541Z,28.45
2022-09-24T01:02:50.859Z,27.02
2022-09-24T01:05:17.785Z,27.67
2022-09-24T01:07:48.063Z,30.50
2022-09-24T01:10:35.909Z,27.98
2022-09-24T01:13:11.151Z,35.88
2022-09-24T01:15:42.359Z,33.35
2022-09-24T01:18:29.442Z,32.53
2022-09-24T01:20:58.457Z,35.10
2022-09-24T01:23:48.434Z,36.65
2022-09-24T01:26:19.426Z,37.30
2022-09-24T01:31:16.895Z,34.10
2022-09-24T01:33:44.942Z,38.55
2022-09-24T01:36:12.984Z,36.60
2022-09-24T01:38:41.646Z,40.25
2022-09-24T01:41:09.076Z,43.30
2022-09-24T01:43:35.762Z,40.70
2022-09-24T01:46:03.391Z,44.13
2022-09-24T01:48:30.292Z,41.65
2022-09-24T01:51:09.340Z,46.58
2022-09-24T01:53:42.487Z,40.22
2022-09-24T01:56:15.046Z,46.47
2022-09-24T01:58:53.184Z,42.22
2022-09-24T02:01:23.408Z,47.90
2022-09-24T02:03:53.223Z,44.28
2022-09-24T02:06:23.057Z,46.27
2022-09-24T02:08:49.378Z,43.83
2022-09-24T02:11:23.206Z,52.90
2022-09-24T02:13:49.433Z,44.13
2022-09-24T02:16:16.735Z,42.08
2022-09-24T02:18:46.966Z,47.65
2022-09-24T02:21:15.537Z,46.92
2022-09-24T02:23:45.075Z,45.78
2022-09-24T02:26:11.389Z,43.97
2022-09-24T02:28:37.691Z,48.35
2022-09-24T02:31:23.684Z,42.38
2022-09-24T02:34:09.390Z,43.08
2022-09-24T02:36:36.071Z,38.58
2022-09-24T02:39:03.087Z,41.70
2022-09-24T02:41:30.035Z,44.33
2022-09-24T02:43:56.303Z,40.88
2022-09-24T02:46:22.803Z,41.30
2022-09-24T02:48:49.143Z,39.95
2022-09-24T02:51:15.382Z,39.10
2022-09-24T02:53:41.635Z,41.55
2022-09-24T02:56:08.048Z,38.70
2022-09-24T02:58:34.475Z,39.47
2022-09-24T03:01:00.750Z,39.05
2022-09-24T03:03:27.030Z,39.10
2022-09-24T03:05:54.944Z,37.88
2022-09-24T03:08:22.053Z,42.38
2022-09-24T03:10:48.728Z,39.28
2022-09-24T03:13:14.966Z,39.67
2022-09-24T03:15:41.381Z,37.03
2022-09-24T03:18:07.801Z,40.40
2022-09-24T03:20:34.174Z,41.55
2022-09-24T03:23:00.423Z,40.85
2022-09-24T03:25:26.671Z,37.58
2022-09-24T03:27:52.899Z,35.60
2022-09-24T03:30:37.667Z,38.92
2022-09-24T03:33:03.945Z,40.45
2022-09-24T03:35:30.184Z,42.35
2022-09-24T03:37:56.383Z,42.75
2022-09-24T03:40:22.820Z,40.20
2022-09-24T03:42:49.052Z,39.70
2022-09-24T03:45:15.293Z,39.80
2022-09-24T03:47:42.308Z,40.50
2022-09-24T03:50:11.481Z,40.88
2022-09-24T03:52:40.618Z,39.72
2022-09-24T03:55:07.486Z,38.55
2022-09-24T03:57:33.752Z,35.72
2022-09-24T04:00:00.003Z,36.35
2022-09-24T04:02:26.285Z,36.13
2022-09-24T04:04:52.527Z,37.22
2022-09-24T04:07:18.787Z,35.22
2022-09-24T04:09:44.988Z,35.10
2022-09-24T04:12:11.740Z,35.90
2022-09-24T04:14:37.955Z,33.70
2022-09-24T04:17:04.199Z,35.05
2022-09-24T04:19:31.772Z,31.23
2022-09-24T04:21:58.023Z,32.28
2022-09-24T04:24:24.279Z,33.58
2022-09-24T04:26:50.677Z,32.60
2022-09-24T04:29:16.922Z,32.30
2022-09-24T04:31:43.212Z,33.58
2022-09-24T04:34:10.022Z,44.28
2022-09-24T04:36:36.273Z,34.13
2022-09-24T04:39:03.324Z,35.90
2022-09-24T04:41:29.552Z,34.42
2022-09-24T04:43:56.782Z,34.40
2022-09-24T04:46:23.154Z,33.22
2022-09-24T04:48:49.870Z,34.17
2022-09-24T04:51:19.273Z,34.20
2022-09-24T04:53:47.726Z,33.75
2022-09-24T04:56:14.399Z,34.22
2022-09-24T04:58:40.666Z,37.33
2022-09-24T05:01:07.047Z,34.40
2022-09-24T05:03:33.346Z,34.85
2022-09-24T05:05:59.879Z,31.00
2022-09-24T05:08:26.128Z,34.20
2022-09-24T05:10:54.034Z,33.40
2022-09-24T05:13:20.468Z,35.03
2022-09-24T05:15:46.736Z,32.67
2022-09-24T05:18:13.004Z,33.47
2022-09-24T05:20:39.233Z,35.88
2022-09-24T05:23:05.937Z,33.40
2022-09-24T05:25:32.151Z,32.83
2022-09-24T05:27:58.418Z,27.75
2022-09-24T05:30:25.106Z,28.20
2022-09-24T05:32:54.252Z,29.38
2022-09-24T05:35:21.302Z,30.50
2022-09-24T05:37:49.602Z,36.88
2022-09-24T05:40:34.722Z,29.02
2022-09-24T05:43:04.268Z,27.80
2022-09-24T05:45:30.930Z,31.33
2022-09-24T05:47:57.284Z,31.65
2022-09-24T05:50:23.634Z,32.67
2022-09-24T05:52:49.902Z,30.27
2022-09-24T05:55:16.153Z,32.42
2022-09-24T05:57:42.360Z,28.83
2022-09-24T06:00:08.852Z,29.67
2022-09-24T06:02:35.145Z,28.58
2022-09-24T06:05:01.451Z,28.58
2022-09-24T06:07:27.676Z,29.20
2022-09-24T06:09:55.241Z,30.23
2022-09-24T06:12:22.339Z,31.48
2022-09-24T06:14:48.561Z,34.25
2022-09-24T06:17:14.796Z,55.78
2022-09-24T06:19:41.024Z,35.95
2022-09-24T06:22:07.277Z,34.85
2022-09-24T06:24:33.512Z,29.50
2022-09-24T06:26:59.734Z,28.13
2022-09-24T06:29:26.121Z,31.88
2022-09-24T06:31:53.655Z,36.75
2022-09-24T06:34:19.971Z,32.20
2022-09-24T06:36:46.387Z,33.85
2022-09-24T06:39:12.712Z,33.83
2022-09-24T06:41:39.012Z,29.27
2022-09-24T06:44:05.320Z,31.92
2022-09-24T06:46:31.691Z,27.98
2022-09-24T06:48:58.043Z,38.30
2022-09-24T06:51:24.396Z,29.15
2022-09-24T06:53:51.332Z,31.05
2022-09-24T06:56:17.690Z,27.17
2022-09-24T06:58:44.080Z,28.50
2022-09-24T07:01:10.554Z,32.13
2022-09-24T07:03:39.099Z,31.88
2022-09-24T07:06:05.879Z,34.70
2022-09-24T07:08:32.500Z,36.75
2022-09-24T07:10:59.188Z,34.67
2022-09-24T07:13:25.559Z,38.47
2022-09-24T07:15:52.739Z,33.15
2022-09-24T07:18:19.926Z,37.58
2022-09-24T07:20:51.600Z,34.17
2022-09-24T07:23:18.507Z,40.15
2022-09-24T07:25:44.819Z,38.72
2022-09-24T07:28:12.720Z,37.90
2022-09-24T07:30:39.600Z,40.13
2022-09-24T07:33:07.434Z,41.10
2022-09-24T07:35:34.511Z,44.65
2022-09-24T07:38:02.053Z,41.25
2022-09-24T07:40:29.601Z,46.38
2022-09-24T07:42:56.895Z,56.05
2022-09-24T07:45:24.141Z,48.72
2022-09-24T07:47:57.218Z,46.15
2022-09-24T07:50:23.546Z,49.05
2022-09-24T07:52:50.353Z,46.60
2022-09-24T07:55:17.090Z,49.15
2022-09-24T07:57:47.620Z,49.25
2022-09-24T08:02:40.408Z,49.90
2022-09-24T08:05:06.958Z,51.05
2022-09-24T08:07:33.348Z,51.83
2022-09-24T08:10:01.455Z,49.47
2022-09-24T08:12:27.915Z,42.83
2022-09-24T08:14:54.281Z,53.83
2022-09-24T08:17:20.676Z,47.08
2022-09-24T08:19:47.007Z,49.22
2022-09-24T08:22:16.899Z,51.83
2022-09-24T08:24:43.468Z,47.60
2022-09-24T08:27:13.759Z,52.45
2022-09-24T08:29:42.825Z,50.28
2022-09-24T08:32:09.192Z,46.38
2022-09-24T08:34:38.447Z,45.53
2022-09-24T08:37:06.042Z,50.78
2022-09-24T08:39:35.259Z,45.97
2022-09-24T08:42:01.582Z,46.97
2022-09-24T08:44:46.449Z,49.67
2022-09-24T08:47:38.852Z,44.35
2022-09-24T08:50:19.146Z,44.17
2022-09-24T08:52:48.205Z,47.08
2022-09-24T08:55:21.636Z,43.33
2022-09-24T08:57:57.493Z,44.88
2022-09-24T09:00:23.860Z,45.30
2022-09-24T09:02:58.543Z,46.88
2022-09-24T09:05:47.265Z,46.25
2022-09-24T09:08:50.057Z,43.63
2022-09-24T09:11:13.408Z,39.97
2022-09-24T09:13:41.656Z,45.58
2022-09-24T09:16:28.307Z,47.45
2022-09-24T09:18:58.541Z,43.95
2022-09-24T09:21:31.273Z,40.90
2022-09-24T09:23:59.544Z,44.65
2022-09-24T09:26:27.185Z,41.72
2022-09-24T09:28:55.909Z,45.72
2022-09-24T09:31:22.432Z,37.10
2022-09-24T09:33:48.917Z,35.15
2022-09-24T09:36:15.188Z,33.28
2022-09-24T09:38:44.339Z,36.40
2022-09-24T09:41:10.672Z,45.78
2022-09-24T09:43:38.193Z,37.45
2022-09-24T09:46:10.861Z,39.30
2022-09-24T09:48:48.581Z,30.15
2022-09-24T09:51:22.310Z,31.83
2022-09-24T09:53:59.094Z,31.88
2022-09-24T09:56:30.036Z,31.48
2022-09-24T09:59:28.818Z,33.67
2022-09-24T10:01:56.545Z,29.33
2022-09-24T10:04:37.451Z,29.60
2022-09-24T10:07:14.676Z,33.47
2022-09-24T10:09:42.183Z,30.77
2022-09-24T10:12:08.930Z,32.33
2022-09-24T10:14:35.329Z,36.42
2022-09-24T10:17:05.436Z,31.10
2022-09-24T10:19:34.400Z,30.50
2022-09-24T10:22:07.946Z,28.67
2022-09-24T10:24:34.811Z,26.10
2022-09-24T10:27:01.176Z,25.05
2022-09-24T10:29:50.649Z,27.13
2022-09-24T10:32:18.403Z,26.17
2022-09-24T10:34:56.446Z,22.52
2022-09-24T10:37:22.813Z,25.63
2022-09-24T10:40:02.381Z,25.33
2022-09-24T10:42:29.546Z,28.17
2022-09-24T10:44:57.080Z,24.77
2022-09-24T10:47:28.225Z,23.42
2022-09-24T10:50:13.168Z,24.55
2022-09-24T10:52:44.677Z,28.13
2022-09-24T10:55:11.013Z,25.95
2022-09-24T10:57:42.024Z,26.65
2022-09-24T11:00:15.404Z,26.13
2022-09-24T11:02:59.931Z,28.45
2022-09-24T11:05:31.981Z,33.53
2022-09-24T11:07:58.312Z,24.92
2022-09-24T11:10:39.055Z,26.67
2022-09-24T11:13:21.583Z,25.35
2022-09-24T11:15:51.991Z,27.23
2022-09-24T11:20:57.725Z,27.45
2022-09-24T11:23:31.736Z,26.88
2022-09-24T11:26:17.968Z,27.27
2022-09-24T11:29:04.911Z,24.83
2022-09-24T11:31:34.521Z,23.20
2022-09-24T11:34:00.869Z,27.33
2022-09-24T11:36:45.734Z,23.13
2022-09-24T11:39:20.589Z,21.85
2022-09-24T11:41:47.653Z,26.85
2022-09-24T11:44:18.653Z,23.02
2022-09-24T11:46:54.034Z,25.33
2022-09-24T11:49:38.095Z,21.73
2022-09-24T11:52:13.484Z,24.92
2022-09-24T11:54:45.592Z,21.02
2022-09-24T11:57:16.196Z,21.35
2022-09-24T11:59:42.630Z,22.83
2022-09-24T12:02:19.311Z,18.90
2022-09-24T12:04:54.672Z,19.35
2022-09-24T12:07:24.357Z,12.65
2022-09-24T12:10:05.007Z,16.37
2022-09-24T12:12:33.553Z,14.13
2022-09-24T12:15:02.751Z,14.25
2022-09-24T12:17:34.285Z,11.93
2022-09-24T12:20:02.853Z,13.05
2022-09-24T12:22:29.885Z,12.68
2022-09-24T12:25:00.670Z,8.70
2022-09-24T12:27:31.465Z,11.52
2022-09-24T12:30:19.336Z,9.68
2022-09-24T12:32:56.128Z,7.82
2022-09-24T12:35:25.384Z,8.18
2022-09-24T12:37:53.804Z,12.93
2022-09-24T12:40:26.040Z,7.38
2022-09-24T12:42:55.600Z,8.60
2022-09-24T12:45:22.706Z,9.13
2022-09-24T12:47:52.024Z,13.80
2022-09-24T12:50:27.234Z,10.15
2022-09-24T12:52:54.696Z,14.18
2022-09-24T12:55:22.633Z,5.75
2022-09-24T12:57:54.351Z,7.43
2022-09-24T13:00:36.038Z,7.40
2022-09-24T13:03:03.299Z,4.43
2022-09-24T13:05:34.420Z,9.32
2022-09-24T13:08:24.715Z,14.23
2022-09-24T13:10:55.745Z,10.73
2022-09-24T13:13:29.284Z,9.02
2022-09-24T13:16:19.049Z,9.93
2022-09-24T13:18:53.899Z,12.57
2022-09-24T13:21:25.065Z,14.98
2022-09-24T13:23:51.857Z,8.63
2022-09-24T13:26:21.135Z,6.90
2022-09-24T13:28:48.813Z,6.05
2022-09-24T13:31:21.289Z,6.63
2022-09-24T13:33:50.647Z,5.82
2022-09-24T13:36:19.181Z,10.75
2022-09-24T13:38:54.682Z,8.43
2022-09-24T13:41:24.614Z,9.40
2022-09-24T13:44:01.664Z,5.72
2022-09-24T13:46:28.534Z,6.05
2022-09-24T13:49:01.072Z,13.50
2022-09-24T13:51:29.908Z,5.68
2022-09-24T13:54:02.064Z,7.57
2022-09-24T13:56:28.364Z,6.47
2022-09-24T13:59:03.244Z,8.30
2022-09-24T14:01:31.464Z,11.07
2022-09-24T14:04:00.289Z,9.80
2022-09-24T14:06:35.715Z,12.45
2022-09-24T14:09:02.430Z,6.30
2022-09-24T14:11:28.872Z,8.07
2022-09-24T14:13:56.340Z,8.52
2022-09-24T14:16:23.899Z,7.72
2022-09-24T14:19:01.002Z,8.68
2022-09-24T14:21:30.766Z,9.85
2022-09-24T14:24:03.780Z,14.93
2022-09-24T14:26:32.067Z,5.65
2022-09-24T14:29:00.021Z,7.93
2022-09-24T14:31:26.864Z,9.55
2022-09-24T14:33:53.489Z,9.55
2022-09-24T14:36:27.610Z,8.57
2022-09-24T14:38:59.414Z,6.55
2022-09-24T14:41:29.071Z,16.55
2022-09-24T14:44:07.813Z,10.63
2022-09-24T14:46:37.122Z,7.65
2022-09-24T14:49:16.681Z,9.30
2022-09-24T14:51:50.856Z,13.45
2022-09-24T14:54:36.056Z,11.95
2022-09-24T14:57:17.589Z,11.00
2022-09-24T14:59:44.110Z,15.80
2022-09-24T15:02:15.723Z,10.15
2022-09-24T15:04:45.712Z,15.50
2022-09-24T15:07:21.339Z,14.07
2022-09-24T15:09:51.728Z,11.00
2022-09-24T15:12:22.755Z,10.18
2022-09-24T15:15:00.094Z,12.27
2022-09-24T15:17:47.298Z,8.75
2022-09-24T15:20:14.163Z,10.48
2022-09-24T15:22:41.759Z,17.52
2022-09-24T15:25:08.331Z,12.18
2022-09-24T15:27:37.954Z,12.20
2022-09-24T15:30:05.444Z,9.13
2022-09-24T15:32:33.650Z,14.80
2022-09-24T15:35:00.021Z,19.95
2022-09-24T15:37:27.934Z,12.23
2022-09-24T15:39:57.481Z,18.23
2022-09-24T15:42:25.044Z,24.17
2022-09-24T15:44:51.507Z,15.60
2022-09-24T15:47:18.491Z,17.73
2022-09-24T15:49:44.930Z,11.48
2022-09-24T15:52:15.643Z,8.98
2022-09-24T15:54:42.041Z,19.27
2022-09-24T15:57:11.982Z,11.85
2022-09-24T15:59:38.321Z,16.45
2022-09-24T16:02:12.241Z,13.27
2022-09-24T16:04:38.536Z,13.75
2022-09-24T16:07:04.867Z,18.27
2022-09-24T16:09:31.192Z,14.68
2022-09-24T16:11:57.650Z,15.70
2022-09-24T16:14:23.964Z,16.90
2022-09-24T16:16:50.283Z,10.68
2022-09-24T16:19:16.580Z,19.90
2022-09-24T16:21:42.957Z,9.68
2022-09-24T16:24:09.335Z,14.18
2022-09-24T16:26:35.850Z,8.55
2022-09-24T16:29:02.740Z,10.23
2022-09-24T16:31:29.197Z,12.68
2022-09-24T16:33:55.595Z,17.27
2022-09-24T16:36:23.835Z,9.10
2022-09-24T16:38:50.383Z,16.27
2022-09-24T16:41:16.689Z,9.48
2022-09-24T16:43:42.993Z,14.10
2022-09-24T16:46:10.264Z,10.15
2022-09-24T16:48:37.081Z,16.73
2022-09-24T16:51:03.425Z,14.00
2022-09-24T16:53:29.754Z,13.25
2022-09-24T16:56:02.419Z,11.48
2022-09-24T16:58:28.750Z,9.77
2022-09-24T17:00:55.056Z,13.57
2022-09-24T17:03:21.427Z,14.50
2022-09-24T17:05:47.786Z,7.65
2022-09-24T17:08:14.130Z,9.48
2022-09-24T17:10:51.244Z,13.52
2022-09-24T17:13:18.407Z,8.98
2022-09-24T17:15:44.764Z,9.80
2022-09-24T17:18:11.128Z,5.53
2022-09-24T17:20:37.435Z,21.17
2022-09-24T17:23:03.756Z,10.10
2022-09-24T17:25:30.112Z,9.60
2022-09-24T17:27:56.427Z,12.50
2022-09-24T17:30:22.756Z,8.05
2022-09-24T17:32:49.238Z,7.85
2022-09-24T17:35:15.856Z,7.60
2022-09-24T17:37:42.179Z,10.43
2022-09-24T17:40:09.030Z,6.32
2022-09-24T17:42:35.549Z,6.07
2022-09-24T17:45:01.856Z,9.93
2022-09-24T17:47:48.161Z,7.03
2022-09-24T17:50:16.060Z,9.70
2022-09-24T17:52:42.416Z,12.57
2022-09-24T17:55:08.799Z,9.75
2022-09-24T17:57:35.243Z,11.63
2022-09-24T18:00:02.028Z,11.65
2022-09-24T18:02:28.388Z,7.43
2022-09-24T18:04:54.716Z,12.85
2022-09-24T18:07:21.129Z,6.50
2022-09-24T18:09:47.437Z,11.00
2022-09-24T18:12:17.160Z,13.07
2022-09-24T18:14:45.642Z,8.75
2022-09-24T18:17:11.947Z,13.15
2022-09-24T18:19:38.254Z,10.07
2022-09-24T18:22:06.465Z,10.60
2022-09-24T18:24:33.452Z,10.00
2022-09-24T18:26:59.762Z,8.18
2022-09-24T18:29:26.210Z,11.80
2022-09-24T18:31:52.530Z,8.02
2022-09-24T18:34:18.954Z,11.10
2022-09-24T18:36:45.329Z,12.50
2022-09-24T18:39:13.565Z,13.15
2022-09-24T18:41:40.608Z,12.15
2022-09-24T18:44:06.898Z,8.70
2022-09-24T18:46:33.349Z,5.85
2022-09-24T18:49:00.593Z,8.35
2022-09-24T18:51:28.280Z,13.25
2022-09-24T18:53:55.670Z,10.52
2022-09-24T18:56:23.927Z,8.50
2022-09-24T18:59:02.064Z,8.23
2022-09-24T19:01:31.474Z,9.57
2022-09-24T19:04:00.909Z,8.27
2022-09-24T19:06:27.769Z,7.68
2022-09-24T19:08:54.037Z,9.70
2022-09-24T19:11:21.358Z,14.50
2022-09-24T19:13:49.658Z,7.25
2022-09-24T19:16:16.525Z,6.75
2022-09-24T19:18:42.953Z,6.20
2022-09-24T19:21:10.664Z,5.35
2022-09-24T19:23:41.337Z,11.95
2022-09-24T19:26:08.035Z,14.00
2022-09-24T19:28:34.900Z,7.53
2022-09-24T19:31:01.422Z,12.10
2022-09-24T19:33:28.805Z,18.20
2022-09-24T19:35:56.427Z,5.78
2022-09-24T19:38:23.870Z,9.32
2022-09-24T19:41:11.332Z,11.55
2022-09-24T19:43:37.639Z,8.15
2022-09-24T19:46:08.091Z,7.72
2022-09-24T19:51:01.682Z,8.23
2022-09-24T19:53:29.352Z,6.68
2022-09-24T19:55:56.404Z,10.00
2022-09-24T19:58:22.682Z,8.57
2022-09-24T20:00:49.020Z,8.43
2022-09-24T20:03:17.307Z,11.07
2022-09-24T20:05:43.976Z,9.05
2022-09-24T20:08:12.400Z,12.85
2022-09-24T20:10:39.197Z,8.07
2022-09-24T20:13:05.730Z,11.00
2022-09-24T20:15:32.053Z,13.77
2022-09-24T20:17:58.558Z,6.18
2022-09-24T20:20:25.149Z,13.55
2022-09-24T20:22:51.400Z,10.00
2022-09-24T20:25:17.614Z,10.73
2022-09-24T20:27:52.665Z,7.15
2022-09-24T20:30:23.777Z,17.00
2022-09-24T20:32:50.235Z,5.05
2022-09-24T20:35:17.610Z,11.57
2022-09-24T20:37:44.465Z,8.32
2022-09-24T20:40:10.877Z,10.95
2022-09-24T20:42:38.346Z,9.10
2022-09-24T20:45:06.495Z,10.70
2022-09-24T20:47:32.823Z,10.80
2022-09-24T20:49:59.386Z,10.05
2022-09-24T20:52:25.731Z,4.40
2022-09-24T20:54:51.959Z,11.48
2022-09-24T20:57:18.275Z,20.83
2022-09-24T20:59:44.522Z,10.50
2022-09-24T21:02:11.003Z,10.90
2022-09-24T21:04:37.379Z,6.70
2022-09-24T21:07:03.596Z,11.35
2022-09-24T21:09:29.903Z,5.30
2022-09-24T21:11:57.012Z,8.05
2022-09-24T21:14:23.334Z,9.68
2022-09-24T21:16:49.852Z,7.43
2022-09-24T21:19:16.166Z,13.80
2022-09-24T21:21:42.379Z,9.13
2022-09-24T21:24:11.771Z,6.18
2022-09-24T21:26:38.710Z,13.20
2022-09-24T21:29:08.078Z,7.97
2022-09-24T21:31:35.496Z,8.95
2022-09-24T21:34:01.867Z,10.48
2022-09-24T21:36:29.424Z,8.38
2022-09-24T21:38:55.712Z,8.05
2022-09-24T21:41:23.170Z,9.20
2022-09-24T21:43:49.575Z,9.98
2022-09-24T21:46:15.942Z,8.80
2022-09-24T21:48:42.237Z,6.20
2022-09-24T21:51:09.616Z,6.82
2022-09-24T21:53:36.470Z,10.13
2022-09-24T21:56:02.804Z,3.65
2022-09-24T21:58:29.775Z,4.85
2022-09-24T22:00:56.610Z,4.63
2022-09-24T22:03:23.046Z,3.63
2022-09-24T22:05:49.302Z,8.50
2022-09-24T22:08:16.502Z,4.82
2022-09-24T22:10:43.883Z,9.90
2022-09-24T22:13:13.994Z,14.57
2022-09-24T22:15:43.466Z,8.20
2022-09-24T22:18:12.568Z,8.23
2022-09-24T22:20:42.795Z,6.38
2022-09-24T22:23:09.939Z,5.25
2022-09-24T22:25:36.229Z,3.85
2022-09-24T22:28:02.858Z,7.47
2022-09-24T22:30:29.129Z,8.80
2022-09-24T22:32:55.423Z,14.00
2022-09-24T22:35:43.348Z,7.32
2022-09-24T22:38:09.833Z,6.13
2022-09-24T22:40:36.532Z,5.13
2022-09-24T22:43:03.005Z,9.88
2022-09-24T22:45:29.267Z,3.80
2022-09-24T22:47:56.395Z,7.63
2022-09-24T22:50:22.655Z,7.25
2022-09-24T22:52:48.876Z,7.70
2022-09-24T22:55:15.083Z,6.50
2022-09-24T22:57:41.303Z,11.50
2022-09-24T23:00:07.952Z,5.07
2022-09-24T23:02:34.548Z,6.70
2022-09-24T23:05:00.944Z,6.80
2022-09-24T23:07:27.436Z,6.80
2022-09-24T23:09:53.709Z,13.73
2022-09-24T23:12:19.915Z,4.80
2022-09-24T23:14:46.351Z,8.90
2022-09-24T23:17:12.619Z,13.45
2022-09-24T23:19:52.517Z,9.02
2022-09-24T23:22:19.650Z,4.17
2022-09-24T23:24:47.057Z,6.88
2022-09-24T23:27:16.488Z,3.58
2022-09-24T23:29:43.421Z,6.10
2022-09-24T23:32:10.078Z,8.23
2022-09-24T23:34:36.336Z,8.48
2022-09-24T23:37:02.550Z,8.73
2022-09-24T23:39:29.202Z,6.15
2022-09-24T23:41:55.839Z,7.60
2022-09-24T23:44:22.059Z,1.52
2022-09-24T23:46:49.000Z,5.65
2022-09-24T23:49:15.531Z,4.25
2022-09-24T23:51:41.825Z,4.68
2022-09-24T23:54:08.056Z,10.55
2022-09-24T23:56:34.337Z,3.03
2022-09-24T23:59:00.620Z,5.82
